Time,TemperatureF,DewpointF,PressureIn,WindDirection,WindDirectionDegrees,WindSpeedMPH,WindSpeedGustMPH,Humidity,HourlyPrecipIn,Conditions,Clouds,dailyrainin,SoftwareType,DateUTC
2013-02-01 00:00:00,30.1,17.9,29.71,SSW,207,17.0,26.0,60,0.00,,---,0.00,VWS V14.01,2013-02-01 05:00:00,
2013-02-01 00:01:00,30.1,17.5,29.71,SSW,211,20.0,21.0,59,0.00,,---,0.00,VWS V14.01,2013-02-01 05:01:00,
2013-02-01 00:02:00,30.1,17.9,29.71,SSW,203,19.0,25.0,60,0.00,,---,0.00,VWS V14.01,2013-02-01 05:02:00,
2013-02-01 00:03:00,30.1,17.9,29.71,SW,222,20.0,25.0,60,0.00,,---,0.00,VWS V14.01,2013-02-01 05:03:00,
2013-02-01 00:04:00,30.2,18.8,29.71,SW,223,20.0,25.0,62,0.00,,---,0.00,VWS V14.01,2013-02-01 05:04:00,
2013-02-01 00:05:00,30.1,17.5,29.71,SW,233,20.0,25.0,59,0.00,,---,0.00,VWS V14.01,2013-02-01 05:05:00,
2013-02-01 00:06:00,30.1,17.9,29.71,SW,216,17.0,25.0,60,0.00,,---,0.00,VWS V14.01,2013-02-01 05:06:00,
2013-02-01 00:07:00,30.2,18.0,29.71,SW,218,21.0,25.0,60,0.00,,---,0.00,VWS V14.01,2013-02-01 05:07:00,
2013-02-01 00:08:00,30.1,17.5,29.71,SW,214,18.0,25.0,59,0.00,,---,0.00,VWS V14.01,2013-02-01 05:08:00,
2013-02-01 00:09:00,30.1,17.5,29.71,SSW,213,20.0,25.0,59,0.00,,---,0.00,VWS V14.01,2013-02-01 05:09:00,
2013-02-01 00:10:00,30.1,17.5,29.71,SSW,211,22.0,26.0,59,0.00,,---,0.00,VWS V14.01,2013-02-01 05:10:00,
2013-02-01 00:11:00,30.1,17.5,29.71,SSW,209,21.0,26.0,59,0.00,,---,0.00,VWS V14.01,2013-02-01 05:11:00,
2013-02-01 00:12:00,30.2,18.4,29.71,SW,226,24.0,26.0,61,0.00,,---,0.00,VWS V14.01,2013-02-01 05:12:00,
2013-02-01 00:13:00,30.2,17.6,29.71,SSW,208,23.0,26.0,59,0.00,,---,0.00,VWS V14.01,2013-02-01 05:13:00,
2013-02-01 00:14:00,30.1,17.1,29.72,SW,222,20.0,28.0,58,0.00,,---,0.00,VWS V14.01,2013-02-01 05:14:00,
2013-02-01 00:15:00,30.1,17.9,29.72,SW,225,22.0,28.0,60,0.00,,---,0.00,VWS V14.01,2013-02-01 05:15:00,
2013-02-01 00:16:00,30.1,18.3,29.72,SW,221,20.0,28.0,61,0.00,,---,0.00,VWS V14.01,2013-02-01 05:16:00,
2013-02-01 00:17:00,30.1,16.7,29.72,SW,223,22.0,28.0,57,0.00,,---,0.00,VWS V14.01,2013-02-01 05:17:00,
2013-02-01 00:18:00,30.1,17.5,29.72,SSW,213,21.0,28.0,59,0.00,,---,0.00,VWS V14.01,2013-02-01 05:18:00,
2013-02-01 00:19:00,30.1,18.3,29.72,SW,221,21.0,28.0,61,0.00,,---,0.00,VWS V14.01,2013-02-01 05:19:00,
2013-02-01 00:20:00,30.1,17.9,29.72,SW,219,17.0,28.0,60,0.00,,---,0.00,VWS V14.01,2013-02-01 05:20:00,
2013-02-01 00:21:00,30.1,18.3,29.72,SSW,200,21.0,28.0,61,0.00,,---,0.00,VWS V14.01,2013-02-01 05:21:00,
2013-02-01 00:22:00,30.1,17.5,29.72,SW,221,22.0,28.0,59,0.00,,---,0.00,VWS V14.01,2013-02-01 05:22:00,
2013-02-01 00:23:00,30.0,17.4,29.72,SW,216,20.0,28.0,59,0.00,,---,0.00,VWS V14.01,2013-02-01 05:23:00,
2013-02-01 00:24:00,30.0,17.8,29.72,SSW,212,21.0,28.0,60,0.00,,---,0.00,VWS V14.01,2013-02-01 05:24:00,
2013-02-01 00:25:00,30.1,17.5,29.72,SSW,211,21.0,28.0,59,0.00,,---,0.00,VWS V14.01,2013-02-01 05:25:00,
2013-02-01 00:26:00,30.1,18.7,29.72,SSW,213,25.0,30.0,62,0.00,,---,0.00,VWS V14.01,2013-02-01 05:26:00,
2013-02-01 00:27:00,30.1,17.5,29.72,SW,228,21.0,30.0,59,0.00,,---,0.00,VWS V14.01,2013-02-01 05:27:00,
2013-02-01 00:28:00,30.1,17.5,29.72,SSW,211,22.0,30.0,59,0.00,,---,0.00,VWS V14.01,2013-02-01 05:28:00,
2013-02-01 00:29:00,30.2,18.4,29.72,SW,219,22.0,30.0,61,0.00,,---,0.00,VWS V14.01,2013-02-01 05:29:00,
2013-02-01 00:30:00,30.2,18.8,29.72,SSW,203,22.0,30.0,62,0.00,,---,0.00,VWS V14.01,2013-02-01 05:30:00,
2013-02-01 00:31:00,30.1,17.9,29.72,SW,225,21.0,23.0,60,0.00,,---,0.00,VWS V14.01,2013-02-01 05:31:00,
2013-02-01 00:32:00,30.1,17.9,29.72,SSW,207,27.0,29.0,60,0.00,,---,0.00,VWS V14.01,2013-02-01 05:32:00,
2013-02-01 00:33:00,30.1,17.1,29.73,SSW,204,19.0,29.0,58,0.00,,---,0.00,VWS V14.01,2013-02-01 05:33:00,
2013-02-01 00:34:00,30.1,17.9,29.73,SW,215,21.0,29.0,60,0.00,,---,0.00,VWS V14.01,2013-02-01 05:34:00,
2013-02-01 00:35:00,30.0,16.6,29.73,SSW,205,22.0,29.0,57,0.00,,---,0.00,VWS V14.01,2013-02-01 05:35:00,
2013-02-01 00:36:00,30.1,18.7,29.73,SW,229,23.0,29.0,62,0.00,,---,0.00,VWS V14.01,2013-02-01 05:36:00,
2013-02-01 00:37:00,30.1,17.9,29.73,SW,222,18.0,29.0,60,0.00,,---,0.00,VWS V14.01,2013-02-01 05:37:00,
2013-02-01 00:38:00,30.1,17.9,29.73,SW,223,21.0,29.0,60,0.00,,---,0.00,VWS V14.01,2013-02-01 05:38:00,
2013-02-01 00:39:00,30.2,18.4,29.73,SW,222,23.0,29.0,61,0.00,,---,0.00,VWS V14.01,2013-02-01 05:39:00,
2013-02-01 00:40:00,30.1,18.3,29.73,SW,215,23.0,31.0,61,0.00,,---,0.00,VWS V14.01,2013-02-01 05:40:00,
2013-02-01 00:41:00,30.2,17.6,29.73,SW,222,21.0,31.0,59,0.00,,---,0.00,VWS V14.01,2013-02-01 05:41:00,
2013-02-01 00:42:00,30.2,18.0,29.73,SSW,211,20.0,31.0,60,0.00,,---,0.00,VWS V14.01,2013-02-01 05:42:00,
2013-02-01 00:43:00,30.1,17.5,29.73,SW,223,20.0,31.0,59,0.00,,---,0.00,VWS V14.01,2013-02-01 05:43:00,
2013-02-01 00:44:00,30.1,17.1,29.73,SW,222,20.0,31.0,58,0.00,,---,0.00,VWS V14.01,2013-02-01 05:44:00,
2013-02-01 00:45:00,30.1,18.3,29.73,SW,223,19.0,31.0,61,0.00,,---,0.00,VWS V14.01,2013-02-01 05:45:00,
2013-02-01 00:46:00,30.1,19.0,29.73,SW,214,23.0,31.0,63,0.00,,---,0.00,VWS V14.01,2013-02-01 05:46:00,
2013-02-01 00:47:00,30.0,16.2,29.73,SW,223,22.0,31.0,56,0.00,,---,0.00,VWS V14.01,2013-02-01 05:47:00,
2013-02-01 00:48:00,29.9,16.5,29.74,SW,221,18.0,31.0,57,0.00,,---,0.00,VWS V14.01,2013-02-01 05:48:00,
2013-02-01 00:49:00,29.9,16.9,29.74,SW,221,14.0,31.0,58,0.00,,---,0.00,VWS V14.01,2013-02-01 05:49:00,
2013-02-01 00:50:00,30.0,18.2,29.74,SSW,210,18.0,31.0,61,0.00,,---,0.00,VWS V14.01,2013-02-01 05:50:00,
2013-02-01 00:51:00,30.0,17.4,29.74,SW,214,18.0,31.0,59,0.00,,---,0.00,VWS V14.01,2013-02-01 05:51:00,
2013-02-01 00:52:00,30.0,17.0,29.74,SW,227,22.0,31.0,58,0.00,,---,0.00,VWS V14.01,2013-02-01 05:52:00,
2013-02-01 00:53:00,30.1,17.5,29.74,SSW,200,22.0,31.0,59,0.00,,---,0.00,VWS V14.01,2013-02-01 05:53:00,
2013-02-01 00:54:00,30.1,17.9,29.74,SW,215,22.0,31.0,60,0.00,,---,0.00,VWS V14.01,2013-02-01 05:54:00,
2013-02-01 00:55:00,30.0,17.8,29.74,SW,231,19.0,31.0,60,0.00,,---,0.00,VWS V14.01,2013-02-01 05:55:00,
2013-02-01 00:56:00,30.1,17.9,29.74,SW,225,22.0,31.0,60,0.00,,---,0.00,VWS V14.01,2013-02-01 05:56:00,
2013-02-01 00:57:00,30.1,18.3,29.74,SSW,213,18.0,31.0,61,0.00,,---,0.00,VWS V14.01,2013-02-01 05:57:00,
2013-02-01 00:58:00,30.1,18.3,29.74,SW,220,17.0,31.0,61,0.00,,---,0.00,VWS V14.01,2013-02-01 05:58:00,
2013-02-01 00:59:00,30.1,18.7,29.74,SW,225,22.0,31.0,62,0.00,,---,0.00,VWS V14.01,2013-02-01 05:59:00,
2013-02-01 01:00:00,30.1,18.3,29.74,SSW,212,21.0,31.0,61,0.00,,---,0.00,VWS V14.01,2013-02-01 06:00:00,
2013-02-01 01:01:00,30.1,18.3,29.74,SSW,211,27.0,27.0,61,0.00,,---,0.00,VWS V14.01,2013-02-01 06:01:00,
2013-02-01 01:02:00,30.0,17.0,29.74,SW,219,18.0,27.0,58,0.00,,---,0.00,VWS V14.01,2013-02-01 06:02:00,
2013-02-01 01:03:00,30.0,17.0,29.74,SW,225,21.0,27.0,58,0.00,,---,0.00,VWS V14.01,2013-02-01 06:03:00,
2013-02-01 01:04:00,30.0,17.0,29.75,SSW,213,17.0,27.0,58,0.00,,---,0.00,VWS V14.01,2013-02-01 06:04:00,
2013-02-01 01:05:00,30.1,18.3,29.75,SW,221,18.0,27.0,61,0.00,,---,0.00,VWS V14.01,2013-02-01 06:05:00,
2013-02-01 01:06:00,30.1,18.3,29.74,SW,218,26.0,27.0,61,0.00,,---,0.00,VWS V14.01,2013-02-01 06:06:00,
2013-02-01 01:07:00,30.1,17.9,29.74,SSW,213,19.0,27.0,60,0.00,,---,0.00,VWS V14.01,2013-02-01 06:07:00,
2013-02-01 01:08:00,30.0,17.4,29.74,SSW,202,25.0,27.0,59,0.00,,---,0.00,VWS V14.01,2013-02-01 06:08:00,
2013-02-01 01:09:00,30.0,17.4,29.75,SW,230,23.0,28.0,59,0.00,,---,0.00,VWS V14.01,2013-02-01 06:09:00,
2013-02-01 01:10:00,30.1,17.9,29.75,SSW,211,29.0,29.0,60,0.00,,---,0.00,VWS V14.01,2013-02-01 06:10:00,
2013-02-01 01:11:00,30.1,19.0,29.75,SW,215,22.0,32.0,63,0.00,,---,0.00,VWS V14.01,2013-02-01 06:11:00,
2013-02-01 01:12:00,30.2,18.8,29.75,SW,229,22.0,32.0,62,0.00,,---,0.00,VWS V14.01,2013-02-01 06:12:00,
2013-02-01 01:13:00,30.1,18.3,29.75,SSW,213,16.0,32.0,61,0.00,,---,0.00,VWS V14.01,2013-02-01 06:13:00,
2013-02-01 01:14:00,30.2,18.0,29.75,SSW,213,19.0,32.0,60,0.00,,---,0.00,VWS V14.01,2013-02-01 06:14:00,
2013-02-01 01:15:00,30.2,19.1,29.75,SW,219,21.0,32.0,63,0.00,,---,0.00,VWS V14.01,2013-02-01 06:15:00,
2013-02-01 01:16:00,30.1,18.3,29.75,SSW,206,17.0,32.0,61,0.00,,---,0.00,VWS V14.01,2013-02-01 06:16:00,
2013-02-01 01:17:00,30.0,17.4,29.75,SSW,208,25.0,32.0,59,0.00,,---,0.00,VWS V14.01,2013-02-01 06:17:00,
2013-02-01 01:18:00,30.0,17.8,29.75,SSW,213,23.0,32.0,60,0.00,,---,0.00,VWS V14.01,2013-02-01 06:18:00,
2013-02-01 01:19:00,30.0,18.2,29.75,SSW,204,22.0,32.0,61,0.00,,---,0.00,VWS V14.01,2013-02-01 06:19:00,
2013-02-01 01:20:00,30.1,18.3,29.75,SSW,205,22.0,32.0,61,0.00,,---,0.00,VWS V14.01,2013-02-01 06:20:00,
2013-02-01 01:21:00,30.1,19.4,29.75,SW,234,31.0,32.0,64,0.00,,---,0.00,VWS V14.01,2013-02-01 06:21:00,
2013-02-01 01:22:00,30.1,18.7,29.75,SSW,207,23.0,32.0,62,0.00,,---,0.00,VWS V14.01,2013-02-01 06:22:00,
2013-02-01 01:23:00,30.1,18.7,29.75,SSW,207,23.0,32.0,62,0.00,,---,0.00,VWS V14.01,2013-02-01 06:23:00,
2013-02-01 01:24:00,30.1,18.7,29.75,SSW,207,23.0,32.0,62,0.00,,---,0.00,VWS V14.01,2013-02-01 06:24:00,
2013-02-01 01:25:00,30.1,18.7,29.75,SSW,207,23.0,32.0,62,0.00,,---,0.00,VWS V14.01,2013-02-01 06:25:00,
2013-02-01 01:26:00,30.1,18.7,29.75,SSW,207,23.0,32.0,62,0.00,,---,0.00,VWS V14.01,2013-02-01 06:26:00,
2013-02-01 01:27:00,30.1,18.7,29.76,SSW,207,23.0,32.0,62,0.00,,---,0.00,VWS V14.01,2013-02-01 06:27:00,
2013-02-01 01:28:00,30.1,18.7,29.76,SSW,207,23.0,32.0,62,0.00,,---,0.00,VWS V14.01,2013-02-01 06:28:00,
2013-02-01 01:29:00,29.6,18.2,29.76,East,89,6.0,32.0,62,0.00,,---,0.00,VWS V14.01,2013-02-01 06:29:00,
2013-02-01 01:30:00,29.5,12.2,29.76,WNW,292,3.0,32.0,48,0.00,,---,0.00,VWS V14.01,2013-02-01 06:30:00,
2013-02-01 01:31:00,29.5,12.2,29.75,ESE,117,3.0,13.0,48,0.00,,---,0.00,VWS V14.01,2013-02-01 06:31:00,
2013-02-01 01:32:00,29.5,12.2,29.76,NNW,335,9.0,13.0,48,0.00,,---,0.00,VWS V14.01,2013-02-01 06:32:00,
2013-02-01 01:33:00,29.6,12.3,29.76,South,174,3.0,13.0,48,0.00,,---,0.00,VWS V14.01,2013-02-01 06:33:00,
2013-02-01 01:34:00,29.5,12.2,29.76,West,259,3.0,13.0,48,0.00,,---,0.00,VWS V14.01,2013-02-01 06:34:00,
2013-02-01 01:35:00,29.5,12.7,29.76,SE,130,2.0,13.0,49,0.00,,---,0.00,VWS V14.01,2013-02-01 06:35:00,
2013-02-01 01:36:00,29.6,12.3,29.76,SSE,148,1.0,13.0,48,0.00,,---,0.00,VWS V14.01,2013-02-01 06:36:00,
2013-02-01 01:37:00,29.6,12.3,29.76,West,267,10.0,21.0,48,0.00,,---,0.00,VWS V14.01,2013-02-01 06:37:00,
2013-02-01 01:38:00,29.6,11.9,29.76,North,351,1.0,21.0,47,0.00,,---,0.00,VWS V14.01,2013-02-01 06:38:00,
2013-02-01 01:39:00,29.6,12.3,29.76,NNE,24,7.0,21.0,48,0.00,,---,0.00,VWS V14.01,2013-02-01 06:39:00,
2013-02-01 01:40:00,29.6,12.3,29.76,West,261,6.0,21.0,48,0.00,,---,0.00,VWS V14.01,2013-02-01 06:40:00,
2013-02-01 01:41:00,29.6,11.9,29.76,SSE,165,3.0,21.0,47,0.00,,---,0.00,VWS V14.01,2013-02-01 06:41:00,
2013-02-01 01:42:00,29.6,12.3,29.76,West,259,11.0,21.0,48,0.00,,---,0.00,VWS V14.01,2013-02-01 06:42:00,
2013-02-01 01:43:00,29.6,12.3,29.76,WNW,294,5.0,21.0,48,0.00,,---,0.00,VWS V14.01,2013-02-01 06:43:00,
2013-02-01 01:44:00,29.6,12.3,29.76,SSW,201,6.0,21.0,48,0.00,,---,0.00,VWS V14.01,2013-02-01 06:44:00,
2013-02-01 01:45:00,29.6,12.3,29.76,WSW,238,8.0,21.0,48,0.00,,---,0.00,VWS V14.01,2013-02-01 06:45:00,
2013-02-01 01:46:00,29.6,12.3,29.76,West,271,15.0,21.0,48,0.00,,---,0.00,VWS V14.01,2013-02-01 06:46:00,
2013-02-01 01:47:00,29.6,12.3,29.76,SE,137,4.0,21.0,48,0.00,,---,0.00,VWS V14.01,2013-02-01 06:47:00,
2013-02-01 01:48:00,29.7,12.4,29.77,SE,140,6.0,21.0,48,0.00,,---,0.00,VWS V14.01,2013-02-01 06:48:00,
2013-02-01 01:49:00,29.7,12.4,29.76,WSW,244,3.0,21.0,48,0.00,,---,0.00,VWS V14.01,2013-02-01 06:49:00,
2013-02-01 01:50:00,29.7,12.4,29.76,North,355,3.0,21.0,48,0.00,,---,0.00,VWS V14.01,2013-02-01 06:50:00,
2013-02-01 01:51:00,29.7,12.4,29.76,NE,48,2.0,21.0,48,0.00,,---,0.00,VWS V14.01,2013-02-01 06:51:00,
2013-02-01 01:52:00,29.7,12.4,29.76,SW,236,9.0,21.0,48,0.00,,---,0.00,VWS V14.01,2013-02-01 06:52:00,
2013-02-01 01:53:00,29.7,12.4,29.77,West,275,13.0,21.0,48,0.00,,---,0.00,VWS V14.01,2013-02-01 06:53:00,
2013-02-01 01:54:00,29.7,12.4,29.77,WSW,237,10.0,21.0,48,0.00,,---,0.00,VWS V14.01,2013-02-01 06:54:00,
2013-02-01 01:55:00,29.6,11.9,29.77,West,264,14.0,21.0,47,0.00,,---,0.00,VWS V14.01,2013-02-01 06:55:00,
2013-02-01 01:56:00,29.6,11.9,29.76,WNW,282,4.0,21.0,47,0.00,,---,0.00,VWS V14.01,2013-02-01 06:56:00,
2013-02-01 01:57:00,29.6,11.9,29.76,WNW,292,5.0,21.0,47,0.00,,---,0.00,VWS V14.01,2013-02-01 06:57:00,
2013-02-01 01:58:00,29.6,11.9,29.77,NW,312,7.0,21.0,47,0.00,,---,0.00,VWS V14.01,2013-02-01 06:58:00,
2013-02-01 01:59:00,29.5,11.8,29.77,SW,225,14.0,21.0,47,0.00,,---,0.00,VWS V14.01,2013-02-01 06:59:00,
2013-02-01 02:00:00,29.5,11.8,29.77,WSW,257,3.0,21.0,47,0.00,,---,0.00,VWS V14.01,2013-02-01 07:00:00,
2013-02-01 02:01:00,29.4,11.7,29.77,WSW,258,6.0,12.0,47,0.00,,---,0.00,VWS V14.01,2013-02-01 07:01:00,
2013-02-01 02:02:00,29.5,12.2,29.77,NW,317,7.0,12.0,48,0.00,,---,0.00,VWS V14.01,2013-02-01 07:02:00,
2013-02-01 02:03:00,29.5,11.8,29.77,West,275,9.0,19.0,47,0.00,,---,0.00,VWS V14.01,2013-02-01 07:03:00,
2013-02-01 02:04:00,29.6,11.9,29.77,West,272,9.0,19.0,47,0.00,,---,0.00,VWS V14.01,2013-02-01 07:04:00,
2013-02-01 02:05:00,29.6,11.4,29.77,SSE,153,5.0,20.0,46,0.00,,---,0.00,VWS V14.01,2013-02-01 07:05:00,
2013-02-01 02:06:00,29.5,11.8,29.76,West,265,5.0,20.0,47,0.00,,---,0.00,VWS V14.01,2013-02-01 07:06:00,
2013-02-01 02:07:00,29.6,11.9,29.76,WSW,254,6.0,20.0,47,0.00,,---,0.00,VWS V14.01,2013-02-01 07:07:00,
2013-02-01 02:08:00,29.6,11.9,29.77,WSW,258,17.0,20.0,47,0.00,,---,0.00,VWS V14.01,2013-02-01 07:08:00,
2013-02-01 02:09:00,29.6,11.9,29.77,WSW,242,9.0,20.0,47,0.00,,---,0.00,VWS V14.01,2013-02-01 07:09:00,
2013-02-01 02:10:00,29.6,11.4,29.77,West,262,15.0,20.0,46,0.00,,---,0.00,VWS V14.01,2013-02-01 07:10:00,
2013-02-01 02:11:00,29.5,11.3,29.77,SW,232,6.0,20.0,46,0.00,,---,0.00,VWS V14.01,2013-02-01 07:11:00,
2013-02-01 02:12:00,29.5,11.8,29.77,South,178,1.0,20.0,47,0.00,,---,0.00,VWS V14.01,2013-02-01 07:12:00,
2013-02-01 02:13:00,29.6,11.9,29.77,SW,224,4.0,20.0,47,0.00,,---,0.00,VWS V14.01,2013-02-01 07:13:00,
2013-02-01 02:14:00,29.7,11.9,29.76,SSE,162,4.0,20.0,47,0.00,,---,0.00,VWS V14.01,2013-02-01 07:14:00,
2013-02-01 02:15:00,29.8,11.6,29.77,SW,229,3.0,20.0,46,0.00,,---,0.00,VWS V14.01,2013-02-01 07:15:00,
2013-02-01 02:16:00,29.8,11.6,29.77,WSW,242,14.0,20.0,46,0.00,,---,0.00,VWS V14.01,2013-02-01 07:16:00,
2013-02-01 02:17:00,29.7,11.5,29.77,South,172,2.0,20.0,46,0.00,,---,0.00,VWS V14.01,2013-02-01 07:17:00,
2013-02-01 02:18:00,29.7,11.5,29.77,West,263,6.0,20.0,46,0.00,,---,0.00,VWS V14.01,2013-02-01 07:18:00,
2013-02-01 02:19:00,29.8,11.6,29.77,ESE,122,10.0,20.0,46,0.00,,---,0.00,VWS V14.01,2013-02-01 07:19:00,
2013-02-01 02:20:00,29.8,11.1,29.76,SSE,157,4.0,20.0,45,0.00,,---,0.00,VWS V14.01,2013-02-01 07:20:00,
2013-02-01 02:21:00,29.8,11.1,29.76,North,355,4.0,20.0,45,0.00,,---,0.00,VWS V14.01,2013-02-01 07:21:00,
2013-02-01 02:22:00,29.9,11.2,29.77,WSW,246,7.0,20.0,45,0.00,,---,0.00,VWS V14.01,2013-02-01 07:22:00,
2013-02-01 02:23:00,29.9,11.2,29.77,SSW,202,6.0,20.0,45,0.00,,---,0.00,VWS V14.01,2013-02-01 07:23:00,
2013-02-01 02:24:00,29.9,11.2,29.77,WNW,294,14.0,20.0,45,0.00,,---,0.00,VWS V14.01,2013-02-01 07:24:00,
2013-02-01 02:25:00,30.0,11.2,29.77,ENE,76,4.0,20.0,45,0.00,,---,0.00,VWS V14.01,2013-02-01 07:25:00,
2013-02-01 02:26:00,30.0,10.7,29.77,WSW,254,8.0,20.0,44,0.00,,---,0.00,VWS V14.01,2013-02-01 07:26:00,
2013-02-01 02:27:00,30.0,10.7,29.77,West,280,15.0,20.0,44,0.00,,---,0.00,VWS V14.01,2013-02-01 07:27:00,
2013-02-01 02:28:00,30.1,11.3,29.77,WSW,249,14.0,20.0,45,0.00,,---,0.00,VWS V14.01,2013-02-01 07:28:00,
2013-02-01 02:29:00,30.0,11.2,29.77,WSW,254,15.0,22.0,45,0.00,,---,0.00,VWS V14.01,2013-02-01 07:29:00,
2013-02-01 02:30:00,29.9,10.6,29.77,WSW,258,20.0,22.0,44,0.00,,---,0.00,VWS V14.01,2013-02-01 07:30:00,
2013-02-01 02:31:00,29.9,10.6,29.77,SSE,167,6.0,20.0,44,0.00,,---,0.00,VWS V14.01,2013-02-01 07:31:00,
2013-02-01 02:32:00,29.8,10.6,29.77,WSW,240,12.0,20.0,44,0.00,,---,0.00,VWS V14.01,2013-02-01 07:32:00,
2013-02-01 02:33:00,29.8,10.6,29.77,WSW,244,19.0,20.0,44,0.00,,---,0.00,VWS V14.01,2013-02-01 07:33:00,
2013-02-01 02:34:00,29.7,10.5,29.77,WNW,284,14.0,20.0,44,0.00,,---,0.00,VWS V14.01,2013-02-01 07:34:00,
2013-02-01 02:35:00,29.6,10.4,29.77,WNW,296,4.0,20.0,44,0.00,,---,0.00,VWS V14.01,2013-02-01 07:35:00,
2013-02-01 02:36:00,29.5,10.8,29.77,WSW,254,9.0,20.0,45,0.00,,---,0.00,VWS V14.01,2013-02-01 07:36:00,
2013-02-01 02:37:00,29.4,10.7,29.77,West,280,10.0,20.0,45,0.00,,---,0.00,VWS V14.01,2013-02-01 07:37:00,
2013-02-01 09:48:00,30.7,15.2,29.77,WSW,240,28.0,33.0,52,0.00,,---,0.00,VWS V14.01,2013-02-01 14:48:00,
2013-02-01 09:54:00,30.7,15.2,29.77,WSW,240,28.0,33.0,52,0.00,,---,0.00,VWS V14.01,2013-02-01 14:54:00,
2013-02-01 09:59:00,30.8,17.0,29.77,WNW,288,22.0,34.0,56,0.00,,---,0.00,VWS V14.01,2013-02-01 14:59:00,
2013-02-01 10:04:00,30.6,13.3,29.77,West,265,25.0,36.0,48,0.00,,---,0.00,VWS V14.01,2013-02-01 15:04:00,
2013-02-01 10:09:00,30.6,12.8,29.76,WNW,284,31.0,38.0,47,0.00,,---,0.00,VWS V14.01,2013-02-01 15:09:00,
2013-02-01 10:14:00,30.8,13.9,29.76,WNW,300,24.0,38.0,49,0.00,,---,0.00,VWS V14.01,2013-02-01 15:14:00,
2013-02-01 10:19:00,31.0,15.9,29.75,WNW,286,27.0,38.0,53,0.00,,---,0.00,VWS V14.01,2013-02-01 15:19:00,
2013-02-01 10:24:00,30.8,14.4,29.75,WNW,289,31.0,38.0,50,0.00,,---,0.00,VWS V14.01,2013-02-01 15:24:00,
2013-02-01 10:29:00,30.6,13.3,29.75,WNW,285,28.0,38.0,48,0.00,,---,0.00,VWS V14.01,2013-02-01 15:29:00,
2013-02-01 10:34:00,30.6,13.7,29.75,West,276,23.0,31.0,49,0.00,,---,0.00,VWS V14.01,2013-02-01 15:34:00,
2013-02-01 10:39:00,30.9,14.0,29.76,WNW,284,21.0,32.0,49,0.00,,---,0.00,VWS V14.01,2013-02-01 15:39:00,
2013-02-01 10:44:00,31.0,13.6,29.76,West,281,27.0,33.0,48,0.00,,---,0.00,VWS V14.01,2013-02-01 15:44:00,
2013-02-01 10:50:00,31.2,11.3,29.77,WNW,298,17.0,33.0,43,0.00,,---,0.00,VWS V14.01,2013-02-01 15:50:00,
2013-02-01 10:55:00,31.5,13.6,29.77,WNW,303,22.0,33.0,47,0.00,,---,0.00,VWS V14.01,2013-02-01 15:55:00,
2013-02-01 11:00:00,31.6,15.1,29.78,WNW,290,21.0,33.0,50,0.00,,---,0.00,VWS V14.01,2013-02-01 16:00:00,
2013-02-01 11:05:00,31.5,14.6,29.77,WNW,286,20.0,30.0,49,0.00,,---,0.00,VWS V14.01,2013-02-01 16:05:00,
2013-02-01 11:10:00,31.6,14.6,29.77,WNW,286,23.0,30.0,49,0.00,,---,0.00,VWS V14.01,2013-02-01 16:10:00,
2013-02-01 11:15:00,31.3,13.9,29.77,NW,317,22.0,30.0,48,0.00,,---,0.00,VWS V14.01,2013-02-01 16:15:00,
2013-02-01 11:20:00,31.5,15.0,29.77,WNW,290,19.0,30.0,50,0.00,,---,0.00,VWS V14.01,2013-02-01 16:20:00,
2013-02-01 11:25:00,31.4,12.5,29.77,West,281,22.0,30.0,45,0.00,,---,0.00,VWS V14.01,2013-02-01 16:25:00,
2013-02-01 11:30:00,31.5,14.1,29.77,WNW,293,16.0,30.0,48,0.00,,---,0.00,VWS V14.01,2013-02-01 16:30:00,
2013-02-01 11:35:00,31.9,13.5,29.77,WNW,295,23.0,28.0,46,0.00,,---,0.00,VWS V14.01,2013-02-01 16:35:00,
2013-02-01 11:41:00,31.9,15.8,29.77,WNW,293,24.0,28.0,51,0.00,,---,0.00,VWS V14.01,2013-02-01 16:41:00,
2013-02-01 11:46:00,31.7,12.8,29.77,WNW,284,24.0,28.0,45,0.00,,---,0.00,VWS V14.01,2013-02-01 16:46:00,
2013-02-01 11:51:00,31.7,13.8,29.77,West,275,21.0,28.0,47,0.00,,---,0.00,VWS V14.01,2013-02-01 16:51:00,
2013-02-01 11:56:00,31.7,12.8,29.77,West,272,19.0,28.0,45,0.00,,---,0.00,VWS V14.01,2013-02-01 16:56:00,
2013-02-01 12:01:00,32.0,14.1,29.77,West,265,22.0,27.0,47,0.00,,---,0.00,VWS V14.01,2013-02-01 17:01:00,
2013-02-01 12:06:00,32.0,15.0,29.76,West,280,26.0,30.0,49,0.00,,---,0.00,VWS V14.01,2013-02-01 17:06:00,
2013-02-01 12:11:00,32.0,14.6,29.76,West,273,19.0,30.0,48,0.00,,---,0.00,VWS V14.01,2013-02-01 17:11:00,
2013-02-01 12:16:00,32.1,14.2,29.76,WNW,290,21.0,30.0,47,0.00,,---,0.00,VWS V14.01,2013-02-01 17:16:00,
2013-02-01 12:21:00,32.1,13.7,29.76,NW,304,21.0,30.0,46,0.00,,---,0.00,VWS V14.01,2013-02-01 17:21:00,
2013-02-01 12:26:00,31.8,14.4,29.75,WNW,288,19.0,30.0,48,0.00,,---,0.00,VWS V14.01,2013-02-01 17:26:00,
2013-02-01 12:31:00,31.9,12.0,29.75,NW,304,14.0,20.0,43,0.00,,---,0.00,VWS V14.01,2013-02-01 17:31:00,
2013-02-01 12:37:00,31.9,13.5,29.75,WNW,295,17.0,24.0,46,0.00,,---,0.00,VWS V14.01,2013-02-01 17:37:00,
2013-02-01 12:42:00,31.6,11.7,29.75,WNW,286,13.0,24.0,43,0.00,,---,0.00,VWS V14.01,2013-02-01 17:42:00,
2013-02-01 12:47:00,31.8,13.4,29.74,West,272,17.0,24.0,46,0.00,,---,0.00,VWS V14.01,2013-02-01 17:47:00,
2013-02-01 12:52:00,32.1,14.2,29.74,NW,306,18.0,25.0,47,0.00,,---,0.00,VWS V14.01,2013-02-01 17:52:00,
2013-02-01 12:57:00,32.1,12.7,29.74,NNW,339,17.0,25.0,44,0.00,,---,0.00,VWS V14.01,2013-02-01 17:57:00,
2013-02-01 13:02:00,32.1,13.7,29.74,WNW,289,17.0,19.0,46,0.00,,---,0.00,VWS V14.01,2013-02-01 18:02:00,
2013-02-01 13:07:00,32.3,13.9,29.75,NW,322,21.0,23.0,46,0.00,,---,0.00,VWS V14.01,2013-02-01 18:07:00,
2013-02-01 13:12:00,31.9,13.0,29.75,NW,309,17.0,24.0,45,0.00,,---,0.00,VWS V14.01,2013-02-01 18:12:00,
2013-02-01 13:17:00,31.7,12.8,29.76,NW,312,15.0,24.0,45,0.00,,---,0.00,VWS V14.01,2013-02-01 18:17:00,
2013-02-01 13:23:00,31.9,13.5,29.76,NW,306,14.0,24.0,46,0.00,,---,0.00,VWS V14.01,2013-02-01 18:23:00,
2013-02-01 13:28:00,32.1,12.7,29.77,WNW,295,10.0,24.0,44,0.00,,---,0.00,VWS V14.01,2013-02-01 18:28:00,
2013-02-01 13:33:00,32.1,11.6,29.77,WNW,302,15.0,19.0,42,0.00,,---,0.00,VWS V14.01,2013-02-01 18:33:00,
2013-02-01 13:38:00,32.1,11.6,29.76,NW,315,18.0,21.0,42,0.00,,---,0.00,VWS V14.01,2013-02-01 18:38:00,
2013-02-01 13:43:00,32.4,13.9,29.76,NW,313,19.0,22.0,46,0.00,,---,0.00,VWS V14.01,2013-02-01 18:43:00,
2013-02-01 13:48:00,32.3,13.9,29.76,NW,325,14.0,22.0,46,0.00,,---,0.00,VWS V14.01,2013-02-01 18:48:00,
2013-02-01 13:53:00,31.9,12.5,29.76,NW,315,18.0,24.0,44,0.00,,---,0.00,VWS V14.01,2013-02-01 18:53:00,
2013-02-01 13:58:00,32.0,13.6,29.76,WNW,292,16.0,24.0,46,0.00,,---,0.00,VWS V14.01,2013-02-01 18:58:00,
2013-02-01 14:03:00,32.0,12.1,29.76,WNW,294,14.0,17.0,43,0.00,,---,0.00,VWS V14.01,2013-02-01 19:03:00,
2013-02-01 14:08:00,32.2,12.8,29.76,WNW,294,13.0,19.0,44,0.00,,---,0.00,VWS V14.01,2013-02-01 19:08:00,
2013-02-01 14:13:00,32.0,10.4,29.76,NW,325,11.0,19.0,40,0.00,,---,0.00,VWS V14.01,2013-02-01 19:13:00,
2013-02-01 14:18:00,32.1,13.2,29.76,NNW,333,14.0,21.0,45,0.00,,---,0.00,VWS V14.01,2013-02-01 19:18:00,
2013-02-01 14:24:00,32.1,13.2,29.76,WNW,298,15.0,21.0,45,0.00,,---,0.00,VWS V14.01,2013-02-01 19:24:00,
2013-02-01 14:29:00,32.2,12.8,29.76,NW,307,17.0,21.0,44,0.00,,---,0.00,VWS V14.01,2013-02-01 19:29:00,
2013-02-01 14:34:00,32.1,13.2,29.77,WNW,288,20.0,20.0,45,0.00,,---,0.00,VWS V14.01,2013-02-01 19:34:00,
2013-02-01 14:39:00,32.3,15.8,29.77,NW,311,15.0,20.0,50,0.00,,---,0.00,VWS V14.01,2013-02-01 19:39:00,
2013-02-01 14:44:00,32.1,13.2,29.78,NW,304,21.0,23.0,45,0.00,,---,0.00,VWS V14.01,2013-02-01 19:44:00,
2013-02-01 14:49:00,31.8,12.4,29.78,NW,317,18.0,23.0,44,0.00,,---,0.00,VWS V14.01,2013-02-01 19:49:00,
2013-02-01 14:54:00,31.9,15.4,29.78,NNW,331,15.0,23.0,50,0.00,,---,0.00,VWS V14.01,2013-02-01 19:54:00,
2013-02-01 14:59:00,31.9,14.9,29.78,NNW,329,18.0,23.0,49,0.00,,---,0.00,VWS V14.01,2013-02-01 19:59:00,
2013-02-01 15:05:00,31.9,14.4,29.79,NW,323,15.0,19.0,48,0.00,,---,0.00,VWS V14.01,2013-02-01 20:05:00,
2013-02-01 15:10:00,32.0,14.1,29.79,NW,319,15.0,19.0,47,0.00,,---,0.00,VWS V14.01,2013-02-01 20:10:00,
2013-02-01 15:15:00,31.9,12.0,29.79,NW,309,15.0,19.0,43,0.00,,---,0.00,VWS V14.01,2013-02-01 20:15:00,
2013-02-01 15:20:00,31.9,12.0,29.79,WNW,303,16.0,25.0,43,0.00,,---,0.00,VWS V14.01,2013-02-01 20:20:00,
2013-02-01 15:25:00,31.9,13.5,29.79,NW,305,19.0,25.0,46,0.00,,---,0.00,VWS V14.01,2013-02-01 20:25:00,
2013-02-01 15:30:00,31.8,13.4,29.79,NW,309,18.0,25.0,46,0.00,,---,0.00,VWS V14.01,2013-02-01 20:30:00,
2013-02-01 15:35:00,31.8,13.9,29.80,NW,311,17.0,21.0,47,0.00,,---,0.00,VWS V14.01,2013-02-01 20:35:00,
2013-02-01 15:40:00,31.9,15.4,29.80,NW,315,17.0,21.0,50,0.00,,---,0.00,VWS V14.01,2013-02-01 20:40:00,
2013-02-01 15:45:00,31.8,13.4,29.80,WNW,300,20.0,23.0,46,0.00,,---,0.00,VWS V14.01,2013-02-01 20:45:00,
2013-02-01 15:51:00,31.8,15.3,29.80,West,280,20.0,26.0,50,0.00,,---,0.00,VWS V14.01,2013-02-01 20:51:00,
2013-02-01 15:56:00,31.5,13.6,29.81,WNW,292,19.0,26.0,47,0.00,,---,0.00,VWS V14.01,2013-02-01 20:56:00,
2013-02-01 16:01:00,31.6,13.2,29.81,WNW,299,18.0,24.0,46,0.00,,---,0.00,VWS V14.01,2013-02-01 21:01:00,
2013-02-01 16:06:00,31.5,13.1,29.81,WNW,303,19.0,26.0,46,0.00,,---,0.00,VWS V14.01,2013-02-01 21:06:00,
2013-02-01 16:11:00,31.3,13.4,29.82,WNW,293,21.0,26.0,47,0.00,,---,0.00,VWS V14.01,2013-02-01 21:11:00,
2013-02-01 16:16:00,31.3,14.4,29.82,WNW,302,16.0,26.0,49,0.00,,---,0.00,VWS V14.01,2013-02-01 21:16:00,
2013-02-01 16:21:00,31.4,13.0,29.83,WNW,300,15.0,26.0,46,0.00,,---,0.00,VWS V14.01,2013-02-01 21:21:00,
2013-02-01 16:27:00,31.4,16.3,29.82,WNW,297,19.0,26.0,53,0.00,,---,0.00,VWS V14.01,2013-02-01 21:27:00,
2013-02-01 16:32:00,31.3,13.4,29.83,NW,324,21.0,21.0,47,0.00,,---,0.00,VWS V14.01,2013-02-01 21:32:00,
2013-02-01 16:37:00,31.0,12.7,29.83,WNW,300,14.0,24.0,46,0.00,,---,0.00,VWS V14.01,2013-02-01 21:37:00,
2013-02-01 16:42:00,31.2,14.3,29.84,NW,306,14.0,24.0,49,0.00,,---,0.00,VWS V14.01,2013-02-01 21:42:00,
2013-02-01 16:47:00,31.1,13.7,29.84,West,281,17.0,24.0,48,0.00,,---,0.00,VWS V14.01,2013-02-01 21:47:00,
2013-02-01 16:52:00,31.2,13.8,29.85,WNW,300,14.0,24.0,48,0.00,,---,0.00,VWS V14.01,2013-02-01 21:52:00,
2013-02-01 16:57:00,31.1,12.2,29.85,WNW,294,21.0,24.0,45,0.00,,---,0.00,VWS V14.01,2013-02-01 21:57:00,
2013-02-01 17:02:00,31.2,14.3,29.85,WNW,292,19.0,23.0,49,0.00,,---,0.00,VWS V14.01,2013-02-01 22:02:00,
2013-02-01 17:07:00,31.2,14.7,29.86,WNW,299,13.0,23.0,50,0.00,,---,0.00,VWS V14.01,2013-02-01 22:07:00,
2013-02-01 17:12:00,31.1,15.1,29.86,WNW,296,16.0,23.0,51,0.00,,---,0.00,VWS V14.01,2013-02-01 22:12:00,
2013-02-01 17:17:00,31.2,15.6,29.87,NNW,332,14.0,23.0,52,0.00,,---,0.00,VWS V14.01,2013-02-01 22:17:00,
2013-02-01 17:22:00,30.7,15.6,29.88,NNW,340,16.0,24.0,53,0.00,,---,0.00,VWS V14.01,2013-02-01 22:22:00,
2013-02-01 17:28:00,30.6,15.5,29.88,NNW,333,14.0,24.0,53,0.00,,---,0.00,VWS V14.01,2013-02-01 22:28:00,
2013-02-01 17:33:00,30.8,13.9,29.88,NW,310,13.0,15.0,49,0.00,,---,0.00,VWS V14.01,2013-02-01 22:33:00,
2013-02-01 17:38:00,30.7,13.4,29.89,NW,307,17.0,17.0,48,0.00,,---,0.00,VWS V14.01,2013-02-01 22:38:00,
2013-02-01 17:43:00,30.7,13.8,29.89,NNW,336,18.0,22.0,49,0.00,,---,0.00,VWS V14.01,2013-02-01 22:43:00,
2013-02-01 17:48:00,30.7,14.7,29.90,NNW,340,17.0,24.0,51,0.00,,---,0.00,VWS V14.01,2013-02-01 22:48:00,
2013-02-01 17:53:00,30.6,14.2,29.91,NNW,329,14.0,24.0,50,0.00,,---,0.00,VWS V14.01,2013-02-01 22:53:00,
2013-02-01 17:58:00,30.5,14.5,29.91,NNW,343,18.0,24.0,51,0.00,,---,0.00,VWS V14.01,2013-02-01 22:58:00,
2013-02-01 18:03:00,30.3,14.8,29.91,NW,316,16.0,20.0,52,0.00,,---,0.00,VWS V14.01,2013-02-01 23:03:00,
2013-02-01 18:08:00,30.2,13.8,29.92,North,355,15.0,22.0,50,0.00,,---,0.00,VWS V14.01,2013-02-01 23:08:00,
2013-02-01 18:13:00,30.0,13.2,29.92,NNW,348,19.0,22.0,49,0.00,,---,0.00,VWS V14.01,2013-02-01 23:13:00,
2013-02-01 18:19:00,29.9,13.1,29.93,NNW,336,16.0,23.0,49,0.00,,---,0.00,VWS V14.01,2013-02-01 23:19:00,
2013-02-01 18:24:00,29.7,11.9,29.94,NNW,331,14.0,25.0,47,0.00,,---,0.00,VWS V14.01,2013-02-01 23:24:00,
2013-02-01 18:29:00,29.7,13.4,29.94,NNW,327,20.0,25.0,50,0.00,,---,0.00,VWS V14.01,2013-02-01 23:29:00,
2013-02-01 18:34:00,29.4,11.2,29.94,NW,307,15.0,21.0,46,0.00,,---,0.00,VWS V14.01,2013-02-01 23:34:00,
2013-02-01 18:39:00,29.4,12.6,29.95,NNW,344,15.0,21.0,49,0.00,,---,0.00,VWS V14.01,2013-02-01 23:39:00,
2013-02-01 18:44:00,29.3,12.5,29.95,NNW,335,14.0,21.0,49,0.00,,---,0.00,VWS V14.01,2013-02-01 23:44:00,
2013-02-01 18:49:00,29.2,12.0,29.95,NW,323,15.0,21.0,48,0.00,,---,0.00,VWS V14.01,2013-02-01 23:49:00,
2013-02-01 18:54:00,29.3,13.9,29.96,NW,309,14.0,21.0,52,0.00,,---,0.00,VWS V14.01,2013-02-01 23:54:00,
2013-02-01 18:59:00,29.1,12.3,29.96,NW,318,18.0,25.0,49,0.00,,---,0.00,VWS V14.01,2013-02-01 23:59:00,
2013-02-01 19:05:00,29.1,12.8,29.97,NW,315,23.0,23.0,50,0.00,,---,0.00,VWS V14.01,2013-02-02 00:05:00,
2013-02-01 19:10:00,29.0,11.3,29.97,NW,323,21.0,26.0,47,0.00,,---,0.00,VWS V14.01,2013-02-02 00:10:00,
2013-02-01 19:15:00,28.9,12.1,29.97,NNW,328,18.0,26.0,49,0.00,,---,0.00,VWS V14.01,2013-02-02 00:15:00,
2013-02-01 19:20:00,28.7,10.6,29.97,NW,311,21.0,26.0,46,0.00,,---,0.00,VWS V14.01,2013-02-02 00:20:00,
2013-02-01 19:25:00,28.9,13.5,29.98,NNW,329,15.0,26.0,52,0.00,,---,0.00,VWS V14.01,2013-02-02 00:25:00,
2013-02-01 19:30:00,28.7,11.5,29.98,NW,321,15.0,26.0,48,0.00,,---,0.00,VWS V14.01,2013-02-02 00:30:00,
2013-02-01 19:35:00,28.4,11.7,29.98,NW,314,15.0,21.0,49,0.00,,---,0.00,VWS V14.01,2013-02-02 00:35:00,
2013-02-01 19:40:00,28.3,11.1,29.99,NW,317,17.0,21.0,48,0.00,,---,0.00,VWS V14.01,2013-02-02 00:40:00,
2013-02-01 19:45:00,28.3,12.1,29.99,NW,318,15.0,21.0,50,0.00,,---,0.00,VWS V14.01,2013-02-02 00:45:00,
2013-02-01 19:50:00,28.3,12.1,29.99,NNW,340,13.0,21.0,50,0.00,,---,0.00,VWS V14.01,2013-02-02 00:50:00,
2013-02-01 19:56:00,28.1,11.9,30.00,NNW,347,15.0,21.0,50,0.00,,---,0.00,VWS V14.01,2013-02-02 00:56:00,
2013-02-01 20:01:00,28.0,11.8,29.99,NW,309,15.0,16.0,50,0.00,,---,0.00,VWS V14.01,2013-02-02 01:01:00,
2013-02-01 20:06:00,27.9,10.8,30.00,NNW,328,16.0,17.0,48,0.00,,---,0.00,VWS V14.01,2013-02-02 01:06:00,
2013-02-01 20:11:00,27.9,11.7,30.00,NW,315,13.0,19.0,50,0.00,,---,0.00,VWS V14.01,2013-02-02 01:11:00,
2013-02-01 20:16:00,27.9,11.2,30.00,NNW,335,17.0,19.0,49,0.00,,---,0.00,VWS V14.01,2013-02-02 01:16:00,
2013-02-01 20:21:00,27.8,10.7,30.00,NW,321,18.0,19.0,48,0.00,,---,0.00,VWS V14.01,2013-02-02 01:21:00,
2013-02-01 20:26:00,27.7,11.5,30.01,NW,322,15.0,19.0,50,0.00,,---,0.00,VWS V14.01,2013-02-02 01:26:00,
2013-02-01 20:31:00,27.7,11.0,30.01,NW,312,12.0,18.0,49,0.00,,---,0.00,VWS V14.01,2013-02-02 01:31:00,
2013-02-01 20:36:00,27.7,12.8,30.01,NW,306,13.0,18.0,53,0.00,,---,0.00,VWS V14.01,2013-02-02 01:36:00,
2013-02-01 20:41:00,27.7,12.4,30.01,NW,311,12.0,18.0,52,0.00,,---,0.00,VWS V14.01,2013-02-02 01:41:00,
2013-02-01 20:46:00,27.8,13.8,30.01,NW,319,14.0,18.0,55,0.00,,---,0.00,VWS V14.01,2013-02-02 01:46:00,
2013-02-01 20:51:00,27.8,12.9,30.01,NW,313,16.0,20.0,53,0.00,,---,0.00,VWS V14.01,2013-02-02 01:51:00,
2013-02-01 20:56:00,27.7,14.1,30.02,NW,308,15.0,20.0,56,0.00,,---,0.00,VWS V14.01,2013-02-02 01:56:00,
2013-02-01 21:01:00,27.5,13.1,30.02,WNW,297,19.0,19.0,54,0.00,,---,0.00,VWS V14.01,2013-02-02 02:01:00,
2013-02-01 21:06:00,27.6,14.0,30.02,NW,311,18.0,19.0,56,0.00,,---,0.00,VWS V14.01,2013-02-02 02:06:00,
2013-02-01 21:11:00,27.7,14.5,30.02,WNW,295,14.0,19.0,57,0.00,,---,0.00,VWS V14.01,2013-02-02 02:11:00,
2013-02-01 21:16:00,27.6,12.3,30.02,WNW,291,22.0,25.0,52,0.00,,---,0.00,VWS V14.01,2013-02-02 02:16:00,
2013-02-01 21:21:00,27.5,12.2,30.02,NW,304,22.0,27.0,52,0.00,,---,0.00,VWS V14.01,2013-02-02 02:21:00,
2013-02-01 21:27:00,27.4,11.2,30.02,NW,309,26.0,27.0,50,0.00,,---,0.00,VWS V14.01,2013-02-02 02:27:00,
2013-02-01 21:32:00,27.3,11.1,30.02,WNW,302,19.0,24.0,50,0.00,,---,0.00,VWS V14.01,2013-02-02 02:32:00,
2013-02-01 21:37:00,27.2,11.9,30.02,WNW,302,20.0,24.0,52,0.00,,---,0.00,VWS V14.01,2013-02-02 02:37:00,
2013-02-01 21:42:00,27.2,11.9,30.02,WNW,298,22.0,25.0,52,0.00,,---,0.00,VWS V14.01,2013-02-02 02:42:00,
2013-02-01 21:47:00,27.2,11.0,30.03,NW,306,19.0,25.0,50,0.00,,---,0.00,VWS V14.01,2013-02-02 02:47:00,
2013-02-01 21:52:00,27.1,10.9,30.03,NW,306,17.0,26.0,50,0.00,,---,0.00,VWS V14.01,2013-02-02 02:52:00,
2013-02-01 21:57:00,26.8,10.2,30.03,WNW,290,21.0,27.0,49,0.00,,---,0.00,VWS V14.01,2013-02-02 02:57:00,
2013-02-01 22:02:00,26.9,10.3,30.03,WNW,302,19.0,23.0,49,0.00,,---,0.00,VWS V14.01,2013-02-02 03:02:00,
2013-02-01 22:07:00,26.8,11.1,30.04,NW,305,18.0,23.0,51,0.00,,---,0.00,VWS V14.01,2013-02-02 03:07:00,
2013-02-01 22:12:00,27.0,13.4,30.03,West,273,26.0,26.0,56,0.00,,---,0.00,VWS V14.01,2013-02-02 03:12:00,
2013-02-01 22:17:00,26.7,12.7,30.04,WNW,294,25.0,29.0,55,0.00,,---,0.00,VWS V14.01,2013-02-02 03:17:00,
2013-02-01 22:22:00,26.5,12.1,30.04,WNW,293,19.0,29.0,54,0.00,,---,0.00,VWS V14.01,2013-02-02 03:22:00,
2013-02-01 22:28:00,26.8,14.0,30.04,WNW,300,17.0,29.0,58,0.00,,---,0.00,VWS V14.01,2013-02-02 03:28:00,
2013-02-01 22:33:00,26.4,11.2,30.04,WNW,290,24.0,27.0,52,0.00,,---,0.00,VWS V14.01,2013-02-02 03:33:00,
2013-02-01 22:38:00,26.2,11.0,30.05,West,274,21.0,28.0,52,0.00,,---,0.00,VWS V14.01,2013-02-02 03:38:00,
2013-02-01 22:43:00,26.2,11.4,30.05,WNW,289,20.0,29.0,53,0.00,,---,0.00,VWS V14.01,2013-02-02 03:43:00,
2013-02-01 22:48:00,26.1,10.9,30.05,WNW,291,21.0,29.0,52,0.00,,---,0.00,VWS V14.01,2013-02-02 03:48:00,
2013-02-01 22:53:00,26.1,10.9,30.05,West,275,21.0,29.0,52,0.00,,---,0.00,VWS V14.01,2013-02-02 03:53:00,
2013-02-01 22:58:00,26.0,12.1,30.05,WNW,286,17.0,29.0,55,0.00,,---,0.00,VWS V14.01,2013-02-02 03:58:00,
2013-02-01 23:03:00,26.0,10.8,30.05,WNW,301,18.0,21.0,52,0.00,,---,0.00,VWS V14.01,2013-02-02 04:03:00,
2013-02-01 23:08:00,26.0,12.9,30.06,WNW,298,19.0,21.0,57,0.00,,---,0.00,VWS V14.01,2013-02-02 04:08:00,
2013-02-01 23:13:00,25.8,11.0,30.06,WNW,282,22.0,22.0,53,0.00,,---,0.00,VWS V14.01,2013-02-02 04:13:00,
2013-02-01 23:18:00,26.0,11.6,30.05,WNW,295,22.0,26.0,54,0.00,,---,0.00,VWS V14.01,2013-02-02 04:18:00,
2013-02-01 23:23:00,25.7,10.9,30.06,WNW,295,20.0,26.0,53,0.00,,---,0.00,VWS V14.01,2013-02-02 04:23:00,
2013-02-01 23:28:00,25.4,10.2,30.07,WNW,289,14.0,26.0,52,0.00,,---,0.00,VWS V14.01,2013-02-02 04:28:00,
2013-02-01 23:33:00,25.6,11.3,30.07,WNW,293,17.0,21.0,54,0.00,,---,0.00,VWS V14.01,2013-02-02 04:33:00,
2013-02-01 23:38:00,25.5,10.3,30.07,WNW,289,16.0,22.0,52,0.00,,---,0.00,VWS V14.01,2013-02-02 04:38:00,
2013-02-01 23:43:00,25.7,10.9,30.07,WNW,293,18.0,23.0,53,0.00,,---,0.00,VWS V14.01,2013-02-02 04:43:00,
2013-02-01 23:48:00,25.4,11.1,30.07,WNW,296,17.0,23.0,54,0.00,,---,0.00,VWS V14.01,2013-02-02 04:48:00,
2013-02-01 23:54:00,25.6,12.9,30.07,WNW,292,14.0,23.0,58,0.00,,---,0.00,VWS V14.01,2013-02-02 04:54:00,
2013-02-01 23:59:00,25.4,10.2,30.07,WNW,292,17.0,25.0,52,0.00,,---,0.00,VWS V14.01,2013-02-02 04:59:00,